sensor_id;sensor_type;location;lat;lon;timestamp;P1;durP1;ratioP1;P2;durP2;ratioP2
30515;SDS011;17297;54.022;10.760;2022-11-20T00:01:17;4.20;;;2.58;;
30515;SDS011;17297;54.022;10.760;2022-11-20T00:03:44;2.85;;;2.20;;
30515;SDS011;17297;54.022;10.760;2022-11-20T00:06:11;3.30;;;2.70;;
30515;SDS011;17297;54.022;10.760;2022-11-20T00:08:38;2.38;;;2.05;;
30515;SDS011;17297;54.022;10.760;2022-11-20T00:11:05;3.13;;;2.55;;
30515;SDS011;17297;54.022;10.760;2022-11-20T00:13:34;4.75;;;2.30;;
30515;SDS011;17297;54.022;10.760;2022-11-20T00:16:00;2.65;;;2.35;;
30515;SDS011;17297;54.022;10.760;2022-11-20T00:18:28;2.45;;;2.25;;
30515;SDS011;17297;54.022;10.760;2022-11-20T00:21:00;2.30;;;2.10;;
30515;SDS011;17297;54.022;10.760;2022-11-20T00:23:26;2.28;;;2.08;;
30515;SDS011;17297;54.022;10.760;2022-11-20T00:25:51;2.58;;;2.03;;
30515;SDS011;17297;54.022;10.760;2022-11-20T00:28:16;2.70;;;1.90;;
30515;SDS011;17297;54.022;10.760;2022-11-20T00:30:42;2.20;;;2.00;;
30515;SDS011;17297;54.022;10.760;2022-11-20T00:33:07;2.63;;;2.42;;
30515;SDS011;17297;54.022;10.760;2022-11-20T00:35:32;2.22;;;2.00;;
30515;SDS011;17297;54.022;10.760;2022-11-20T00:37:58;2.25;;;1.95;;
30515;SDS011;17297;54.022;10.760;2022-11-20T00:40:23;2.30;;;2.10;;
30515;SDS011;17297;54.022;10.760;2022-11-20T00:42:48;2.00;;;1.80;;
30515;SDS011;17297;54.022;10.760;2022-11-20T00:45:14;2.45;;;2.20;;
30515;SDS011;17297;54.022;10.760;2022-11-20T00:47:39;2.63;;;2.20;;
30515;SDS011;17297;54.022;10.760;2022-11-20T00:50:04;2.38;;;2.17;;
30515;SDS011;17297;54.022;10.760;2022-11-20T00:52:30;1.88;;;1.77;;
30515;SDS011;17297;54.022;10.760;2022-11-20T00:54:55;2.40;;;1.88;;
30515;SDS011;17297;54.022;10.760;2022-11-20T00:57:20;1.95;;;1.75;;
30515;SDS011;17297;54.022;10.760;2022-11-20T00:59:46;2.38;;;2.17;;
30515;SDS011;17297;54.022;10.760;2022-11-20T01:02:11;2.45;;;1.90;;
30515;SDS011;17297;54.022;10.760;2022-11-20T01:04:36;2.03;;;1.70;;
30515;SDS011;17297;54.022;10.760;2022-11-20T01:07:02;2.15;;;1.88;;
30515;SDS011;17297;54.022;10.760;2022-11-20T01:09:27;2.25;;;1.70;;
30515;SDS011;17297;54.022;10.760;2022-11-20T01:11:52;2.05;;;1.85;;
30515;SDS011;17297;54.022;10.760;2022-11-20T01:14:19;2.53;;;1.85;;
30515;SDS011;17297;54.022;10.760;2022-11-20T01:16:46;2.88;;;2.17;;
30515;SDS011;17297;54.022;10.760;2022-11-20T01:19:14;2.30;;;2.05;;
30515;SDS011;17297;54.022;10.760;2022-11-20T01:21:42;2.95;;;2.13;;
30515;SDS011;17297;54.022;10.760;2022-11-20T01:24:12;2.05;;;1.67;;
30515;SDS011;17297;54.022;10.760;2022-11-20T01:26:40;1.95;;;1.77;;
30515;SDS011;17297;54.022;10.760;2022-11-20T01:29:09;2.42;;;2.03;;
30515;SDS011;17297;54.022;10.760;2022-11-20T01:31:38;2.20;;;1.95;;
30515;SDS011;17297;54.022;10.760;2022-11-20T01:34:04;2.70;;;2.22;;
30515;SDS011;17297;54.022;10.760;2022-11-20T01:36:32;2.55;;;2.20;;
30515;SDS011;17297;54.022;10.760;2022-11-20T01:38:59;2.13;;;1.92;;
30515;SDS011;17297;54.022;10.760;2022-11-20T01:41:27;2.40;;;2.05;;
30515;SDS011;17297;54.022;10.760;2022-11-20T01:47:34;3.30;;;2.67;;
30515;SDS011;17297;54.022;10.760;2022-11-20T01:52:48;2.42;;;2.10;;
30515;SDS011;17297;54.022;10.760;2022-11-20T01:55:19;2.47;;;2.28;;
30515;SDS011;17297;54.022;10.760;2022-11-20T01:57:59;2.90;;;2.55;;
30515;SDS011;17297;54.022;10.760;2022-11-20T02:00:26;2.53;;;1.92;;
30515;SDS011;17297;54.022;10.760;2022-11-20T02:02:53;3.15;;;2.58;;
30515;SDS011;17297;54.022;10.760;2022-11-20T02:05:23;2.90;;;2.60;;
30515;SDS011;17297;54.022;10.760;2022-11-20T02:08:04;2.65;;;2.45;;
30515;SDS011;17297;54.022;10.760;2022-11-20T02:10:31;3.55;;;2.83;;
30515;SDS011;17297;54.022;10.760;2022-11-20T02:12:57;3.05;;;2.78;;
30515;SDS011;17297;54.022;10.760;2022-11-20T02:15:42;3.00;;;2.35;;
30515;SDS011;17297;54.022;10.760;2022-11-20T02:18:08;2.83;;;2.58;;
30515;SDS011;17297;54.022;10.760;2022-11-20T02:20:34;3.38;;;2.47;;
30515;SDS011;17297;54.022;10.760;2022-11-20T02:23:03;4.00;;;3.30;;
30515;SDS011;17297;54.022;10.760;2022-11-20T02:25:33;3.58;;;2.90;;
30515;SDS011;17297;54.022;10.760;2022-11-20T02:27:59;3.03;;;2.70;;
30515;SDS011;17297;54.022;10.760;2022-11-20T02:30:25;3.78;;;2.78;;
30515;SDS011;17297;54.022;10.760;2022-11-20T02:32:50;3.75;;;2.67;;
30515;SDS011;17297;54.022;10.760;2022-11-20T02:37:44;3.22;;;2.53;;
30515;SDS011;17297;54.022;10.760;2022-11-20T02:40:13;3.05;;;2.72;;
30515;SDS011;17297;54.022;10.760;2022-11-20T02:42:38;2.67;;;2.40;;
30515;SDS011;17297;54.022;10.760;2022-11-20T02:45:04;2.88;;;2.42;;
30515;SDS011;17297;54.022;10.760;2022-11-20T02:47:31;3.65;;;2.30;;
30515;SDS011;17297;54.022;10.760;2022-11-20T02:49:57;2.72;;;2.40;;
30515;SDS011;17297;54.022;10.760;2022-11-20T02:52:22;2.42;;;2.22;;
30515;SDS011;17297;54.022;10.760;2022-11-20T02:54:47;3.30;;;2.78;;
30515;SDS011;17297;54.022;10.760;2022-11-20T02:57:13;3.20;;;2.90;;
30515;SDS011;17297;54.022;10.760;2022-11-20T02:59:38;3.17;;;2.80;;
30515;SDS011;17297;54.022;10.760;2022-11-20T03:02:03;2.70;;;2.50;;
30515;SDS011;17297;54.022;10.760;2022-11-20T03:04:29;3.25;;;2.65;;
30515;SDS011;17297;54.022;10.760;2022-11-20T03:06:55;2.35;;;2.15;;
30515;SDS011;17297;54.022;10.760;2022-11-20T03:09:21;1.98;;;1.83;;
30515;SDS011;17297;54.022;10.760;2022-11-20T03:11:46;2.22;;;1.98;;
30515;SDS011;17297;54.022;10.760;2022-11-20T03:14:11;1.80;;;1.63;;
30515;SDS011;17297;54.022;10.760;2022-11-20T03:16:37;2.10;;;1.90;;
30515;SDS011;17297;54.022;10.760;2022-11-20T03:19:02;2.22;;;2.00;;
30515;SDS011;17297;54.022;10.760;2022-11-20T03:21:27;2.50;;;2.17;;
30515;SDS011;17297;54.022;10.760;2022-11-20T03:23:53;2.53;;;2.33;;
30515;SDS011;17297;54.022;10.760;2022-11-20T03:26:20;2.15;;;1.95;;
30515;SDS011;17297;54.022;10.760;2022-11-20T03:29:08;4.78;;;2.13;;
30515;SDS011;17297;54.022;10.760;2022-11-20T03:31:36;1.70;;;1.60;;
30515;SDS011;17297;54.022;10.760;2022-11-20T03:34:05;2.55;;;2.35;;
30515;SDS011;17297;54.022;10.760;2022-11-20T03:36:31;2.40;;;1.90;;
30515;SDS011;17297;54.022;10.760;2022-11-20T03:38:57;2.03;;;1.83;;
30515;SDS011;17297;54.022;10.760;2022-11-20T03:41:23;2.17;;;1.92;;
30515;SDS011;17297;54.022;10.760;2022-11-20T03:43:54;2.25;;;2.03;;
30515;SDS011;17297;54.022;10.760;2022-11-20T03:46:21;2.08;;;1.70;;
30515;SDS011;17297;54.022;10.760;2022-11-20T03:48:47;1.90;;;1.80;;
30515;SDS011;17297;54.022;10.760;2022-11-20T03:51:14;1.90;;;1.70;;
30515;SDS011;17297;54.022;10.760;2022-11-20T03:53:41;1.77;;;1.50;;
30515;SDS011;17297;54.022;10.760;2022-11-20T03:56:09;1.67;;;1.58;;
30515;SDS011;17297;54.022;10.760;2022-11-20T03:58:35;2.20;;;1.83;;
30515;SDS011;17297;54.022;10.760;2022-11-20T04:01:09;2.10;;;1.88;;
30515;SDS011;17297;54.022;10.760;2022-11-20T04:03:40;1.80;;;1.65;;
30515;SDS011;17297;54.022;10.760;2022-11-20T04:06:26;3.38;;;1.70;;
30515;SDS011;17297;54.022;10.760;2022-11-20T04:08:58;1.90;;;1.70;;
30515;SDS011;17297;54.022;10.760;2022-11-20T04:11:25;2.25;;;1.63;;
30515;SDS011;17297;54.022;10.760;2022-11-20T04:13:55;1.85;;;1.73;;
30515;SDS011;17297;54.022;10.760;2022-11-20T04:16:25;1.52;;;1.42;;
30515;SDS011;17297;54.022;10.760;2022-11-20T04:18:53;1.88;;;1.40;;
30515;SDS011;17297;54.022;10.760;2022-11-20T04:21:19;1.42;;;1.33;;
30515;SDS011;17297;54.022;10.760;2022-11-20T04:23:45;2.13;;;1.73;;
30515;SDS011;17297;54.022;10.760;2022-11-20T04:26:11;1.85;;;1.50;;
30515;SDS011;17297;54.022;10.760;2022-11-20T04:28:37;1.48;;;1.38;;
30515;SDS011;17297;54.022;10.760;2022-11-20T04:31:04;1.65;;;1.55;;
30515;SDS011;17297;54.022;10.760;2022-11-20T04:33:34;1.60;;;1.27;;
30515;SDS011;17297;54.022;10.760;2022-11-20T04:36:01;1.60;;;1.50;;
30515;SDS011;17297;54.022;10.760;2022-11-20T04:38:28;1.95;;;1.70;;
30515;SDS011;17297;54.022;10.760;2022-11-20T04:41:00;2.33;;;1.80;;
30515;SDS011;17297;54.022;10.760;2022-11-20T04:43:27;1.67;;;1.58;;
30515;SDS011;17297;54.022;10.760;2022-11-20T04:45:54;2.10;;;1.55;;
30515;SDS011;17297;54.022;10.760;2022-11-20T04:48:20;2.53;;;1.60;;
30515;SDS011;17297;54.022;10.760;2022-11-20T04:50:46;2.22;;;1.92;;
30515;SDS011;17297;54.022;10.760;2022-11-20T04:53:11;1.77;;;1.67;;
30515;SDS011;17297;54.022;10.760;2022-11-20T04:55:37;2.22;;;2.03;;
30515;SDS011;17297;54.022;10.760;2022-11-20T04:58:02;2.63;;;1.90;;
30515;SDS011;17297;54.022;10.760;2022-11-20T05:00:27;2.30;;;2.10;;
30515;SDS011;17297;54.022;10.760;2022-11-20T05:02:52;3.08;;;2.10;;
30515;SDS011;17297;54.022;10.760;2022-11-20T05:05:18;2.72;;;2.25;;
30515;SDS011;17297;54.022;10.760;2022-11-20T05:07:43;2.55;;;2.35;;
30515;SDS011;17297;54.022;10.760;2022-11-20T05:10:08;3.95;;;2.50;;
30515;SDS011;17297;54.022;10.760;2022-11-20T05:12:34;2.83;;;2.20;;
30515;SDS011;17297;54.022;10.760;2022-11-20T05:14:59;2.50;;;2.03;;
30515;SDS011;17297;54.022;10.760;2022-11-20T05:17:24;2.97;;;2.25;;
30515;SDS011;17297;54.022;10.760;2022-11-20T05:19:50;2.47;;;2.22;;
30515;SDS011;17297;54.022;10.760;2022-11-20T05:22:15;2.20;;;2.00;;
30515;SDS011;17297;54.022;10.760;2022-11-20T05:24:40;2.47;;;2.00;;
30515;SDS011;17297;54.022;10.760;2022-11-20T05:27:06;2.13;;;1.92;;
30515;SDS011;17297;54.022;10.760;2022-11-20T05:29:31;2.65;;;1.98;;
30515;SDS011;17297;54.022;10.760;2022-11-20T05:31:56;2.25;;;1.83;;
30515;SDS011;17297;54.022;10.760;2022-11-20T05:34:22;2.40;;;1.65;;
30515;SDS011;17297;54.022;10.760;2022-11-20T05:36:47;1.67;;;1.52;;
30515;SDS011;17297;54.022;10.760;2022-11-20T05:39:12;2.00;;;1.50;;
30515;SDS011;17297;54.022;10.760;2022-11-20T05:41:38;1.83;;;1.45;;
30515;SDS011;17297;54.022;10.760;2022-11-20T05:44:03;1.70;;;1.58;;
30515;SDS011;17297;54.022;10.760;2022-11-20T05:46:28;1.40;;;1.20;;
30515;SDS011;17297;54.022;10.760;2022-11-20T05:48:54;1.77;;;1.67;;
30515;SDS011;17297;54.022;10.760;2022-11-20T05:51:20;1.60;;;1.33;;
30515;SDS011;17297;54.022;10.760;2022-11-20T05:53:45;1.52;;;1.42;;
30515;SDS011;17297;54.022;10.760;2022-11-20T05:56:12;1.45;;;1.35;;
30515;SDS011;17297;54.022;10.760;2022-11-20T05:58:39;1.75;;;1.40;;
30515;SDS011;17297;54.022;10.760;2022-11-20T06:01:09;1.30;;;1.20;;
30515;SDS011;17297;54.022;10.760;2022-11-20T06:03:40;1.88;;;1.45;;
30515;SDS011;17297;54.022;10.760;2022-11-20T06:06:07;1.77;;;1.67;;
30515;SDS011;17297;54.022;10.760;2022-11-20T06:08:33;1.52;;;1.25;;
30515;SDS011;17297;54.022;10.760;2022-11-20T06:11:02;1.67;;;1.40;;
30515;SDS011;17297;54.022;10.760;2022-11-20T06:13:29;1.05;;;0.95;;
30515;SDS011;17297;54.022;10.760;2022-11-20T06:15:54;1.48;;;1.33;;
30515;SDS011;17297;54.022;10.760;2022-11-20T06:18:20;1.27;;;1.13;;
30515;SDS011;17297;54.022;10.760;2022-11-20T06:20:45;1.40;;;1.30;;
30515;SDS011;17297;54.022;10.760;2022-11-20T06:23:11;1.80;;;1.33;;
30515;SDS011;17297;54.022;10.760;2022-11-20T06:25:41;1.77;;;1.30;;
30515;SDS011;17297;54.022;10.760;2022-11-20T06:28:07;1.40;;;1.30;;
30515;SDS011;17297;54.022;10.760;2022-11-20T06:30:34;1.25;;;1.10;;
30515;SDS011;17297;54.022;10.760;2022-11-20T06:33:00;1.13;;;1.02;;
30515;SDS011;17297;54.022;10.760;2022-11-20T06:35:25;1.30;;;1.00;;
30515;SDS011;17297;54.022;10.760;2022-11-20T06:37:50;1.10;;;1.00;;
30515;SDS011;17297;54.022;10.760;2022-11-20T06:40:16;1.20;;;1.10;;
30515;SDS011;17297;54.022;10.760;2022-11-20T06:42:41;1.45;;;1.20;;
30515;SDS011;17297;54.022;10.760;2022-11-20T06:45:07;1.55;;;1.27;;
30515;SDS011;17297;54.022;10.760;2022-11-20T06:47:33;1.38;;;1.17;;
30515;SDS011;17297;54.022;10.760;2022-11-20T06:49:58;0.93;;;0.70;;
30515;SDS011;17297;54.022;10.760;2022-11-20T06:52:23;1.65;;;1.35;;
30515;SDS011;17297;54.022;10.760;2022-11-20T06:54:49;1.33;;;1.00;;
30515;SDS011;17297;54.022;10.760;2022-11-20T06:57:14;1.15;;;1.00;;
30515;SDS011;17297;54.022;10.760;2022-11-20T06:59:39;1.38;;;1.25;;
30515;SDS011;17297;54.022;10.760;2022-11-20T07:02:05;1.27;;;1.10;;
30515;SDS011;17297;54.022;10.760;2022-11-20T07:04:30;1.00;;;0.95;;
30515;SDS011;17297;54.022;10.760;2022-11-20T07:06:55;1.17;;;1.00;;
30515;SDS011;17297;54.022;10.760;2022-11-20T07:09:21;1.00;;;0.90;;
30515;SDS011;17297;54.022;10.760;2022-11-20T07:11:46;1.48;;;1.38;;
30515;SDS011;17297;54.022;10.760;2022-11-20T07:14:11;1.15;;;1.05;;
30515;SDS011;17297;54.022;10.760;2022-11-20T07:16:36;1.85;;;1.30;;
30515;SDS011;17297;54.022;10.760;2022-11-20T07:19:02;1.30;;;1.20;;
30515;SDS011;17297;54.022;10.760;2022-11-20T07:21:27;1.15;;;1.05;;
30515;SDS011;17297;54.022;10.760;2022-11-20T07:23:52;2.22;;;1.30;;
30515;SDS011;17297;54.022;10.760;2022-11-20T07:26:18;1.20;;;1.10;;
30515;SDS011;17297;54.022;10.760;2022-11-20T07:28:44;0.85;;;0.85;;
30515;SDS011;17297;54.022;10.760;2022-11-20T07:31:10;1.83;;;1.45;;
30515;SDS011;17297;54.022;10.760;2022-11-20T07:33:37;1.58;;;1.10;;
30515;SDS011;17297;54.022;10.760;2022-11-20T07:36:02;0.80;;;0.80;;
30515;SDS011;17297;54.022;10.760;2022-11-20T07:38:28;1.27;;;1.05;;
30515;SDS011;17297;54.022;10.760;2022-11-20T07:40:54;1.30;;;1.20;;
30515;SDS011;17297;54.022;10.760;2022-11-20T07:43:21;1.02;;;1.00;;
30515;SDS011;17297;54.022;10.760;2022-11-20T07:45:46;1.95;;;1.30;;
30515;SDS011;17297;54.022;10.760;2022-11-20T07:48:12;1.40;;;1.00;;
30515;SDS011;17297;54.022;10.760;2022-11-20T07:50:37;1.20;;;1.10;;
30515;SDS011;17297;54.022;10.760;2022-11-20T07:53:03;0.95;;;0.85;;
30515;SDS011;17297;54.022;10.760;2022-11-20T07:55:29;1.10;;;1.00;;
30515;SDS011;17297;54.022;10.760;2022-11-20T07:57:55;0.82;;;0.82;;
30515;SDS011;17297;54.022;10.760;2022-11-20T08:00:22;0.90;;;0.90;;
30515;SDS011;17297;54.022;10.760;2022-11-20T08:02:48;0.90;;;0.90;;
30515;SDS011;17297;54.022;10.760;2022-11-20T08:05:13;1.33;;;1.10;;
30515;SDS011;17297;54.022;10.760;2022-11-20T08:07:39;1.33;;;1.17;;
30515;SDS011;17297;54.022;10.760;2022-11-20T08:10:07;0.95;;;0.95;;
30515;SDS011;17297;54.022;10.760;2022-11-20T08:12:34;1.38;;;1.00;;
30515;SDS011;17297;54.022;10.760;2022-11-20T08:15:18;1.42;;;1.05;;
30515;SDS011;17297;54.022;10.760;2022-11-20T08:17:43;1.48;;;1.08;;
30515;SDS011;17297;54.022;10.760;2022-11-20T08:20:09;1.17;;;1.00;;
30515;SDS011;17297;54.022;10.760;2022-11-20T08:22:35;1.15;;;1.00;;
30515;SDS011;17297;54.022;10.760;2022-11-20T08:25:00;1.13;;;0.93;;
30515;SDS011;17297;54.022;10.760;2022-11-20T08:27:26;1.02;;;0.90;;
30515;SDS011;17297;54.022;10.760;2022-11-20T08:29:51;1.23;;;1.13;;
30515;SDS011;17297;54.022;10.760;2022-11-20T08:32:17;1.10;;;1.00;;
30515;SDS011;17297;54.022;10.760;2022-11-20T08:34:42;1.20;;;0.98;;
30515;SDS011;17297;54.022;10.760;2022-11-20T08:37:07;1.50;;;1.10;;
30515;SDS011;17297;54.022;10.760;2022-11-20T08:39:32;1.25;;;1.15;;
30515;SDS011;17297;54.022;10.760;2022-11-20T08:41:58;1.17;;;1.08;;
30515;SDS011;17297;54.022;10.760;2022-11-20T08:44:23;1.33;;;1.17;;
30515;SDS011;17297;54.022;10.760;2022-11-20T08:46:49;1.40;;;1.30;;
30515;SDS011;17297;54.022;10.760;2022-11-20T08:49:14;1.20;;;0.95;;
30515;SDS011;17297;54.022;10.760;2022-11-20T08:51:40;2.22;;;1.58;;
30515;SDS011;17297;54.022;10.760;2022-11-20T08:54:05;2.15;;;1.48;;
30515;SDS011;17297;54.022;10.760;2022-11-20T08:56:31;1.02;;;0.93;;
30515;SDS011;17297;54.022;10.760;2022-11-20T08:58:57;1.42;;;1.17;;
30515;SDS011;17297;54.022;10.760;2022-11-20T09:01:24;1.50;;;1.20;;
30515;SDS011;17297;54.022;10.760;2022-11-20T09:03:50;1.75;;;1.63;;
30515;SDS011;17297;54.022;10.760;2022-11-20T09:06:15;2.25;;;1.58;;
30515;SDS011;17297;54.022;10.760;2022-11-20T09:08:41;1.65;;;1.40;;
30515;SDS011;17297;54.022;10.760;2022-11-20T09:11:07;1.73;;;1.42;;
30515;SDS011;17297;54.022;10.760;2022-11-20T09:13:33;1.77;;;1.50;;
30515;SDS011;17297;54.022;10.760;2022-11-20T09:16:04;2.47;;;1.70;;
30515;SDS011;17297;54.022;10.760;2022-11-20T09:18:31;3.47;;;2.00;;
30515;SDS011;17297;54.022;10.760;2022-11-20T09:20:58;2.50;;;1.60;;
30515;SDS011;17297;54.022;10.760;2022-11-20T09:23:24;2.67;;;1.95;;
30515;SDS011;17297;54.022;10.760;2022-11-20T09:25:50;1.77;;;1.67;;
30515;SDS011;17297;54.022;10.760;2022-11-20T09:28:15;2.45;;;1.83;;
30515;SDS011;17297;54.022;10.760;2022-11-20T09:30:43;2.65;;;2.15;;
30515;SDS011;17297;54.022;10.760;2022-11-20T09:33:08;2.80;;;1.63;;
30515;SDS011;17297;54.022;10.760;2022-11-20T09:35:34;2.22;;;1.95;;
30515;SDS011;17297;54.022;10.760;2022-11-20T09:38:03;2.28;;;1.73;;
30515;SDS011;17297;54.022;10.760;2022-11-20T09:40:32;2.25;;;1.95;;
30515;SDS011;17297;54.022;10.760;2022-11-20T09:43:07;1.98;;;1.58;;
30515;SDS011;17297;54.022;10.760;2022-11-20T09:45:45;1.90;;;1.77;;
30515;SDS011;17297;54.022;10.760;2022-11-20T09:56:35;1.55;;;1.45;;
30515;SDS011;17297;54.022;10.760;2022-11-20T09:59:04;1.92;;;1.70;;
30515;SDS011;17297;54.022;10.760;2022-11-20T10:01:33;1.75;;;1.65;;
30515;SDS011;17297;54.022;10.760;2022-11-20T10:04:03;2.05;;;1.70;;
30515;SDS011;17297;54.022;10.760;2022-11-20T10:06:30;2.10;;;1.85;;
30515;SDS011;17297;54.022;10.760;2022-11-20T10:09:00;1.65;;;1.55;;
30515;SDS011;17297;54.022;10.760;2022-11-20T10:11:43;1.40;;;1.30;;
30515;SDS011;17297;54.022;10.760;2022-11-20T10:17:17;1.30;;;1.20;;
30515;SDS011;17297;54.022;10.760;2022-11-20T10:22:54;1.58;;;1.10;;
30515;SDS011;17297;54.022;10.760;2022-11-20T10:25:39;1.27;;;1.10;;
30515;SDS011;17297;54.022;10.760;2022-11-20T10:31:32;1.00;;;0.95;;
30515;SDS011;17297;54.022;10.760;2022-11-20T10:34:07;0.98;;;0.90;;
30515;SDS011;17297;54.022;10.760;2022-11-20T10:36:51;0.75;;;0.75;;
30515;SDS011;17297;54.022;10.760;2022-11-20T10:41:57;1.02;;;0.90;;
30515;SDS011;17297;54.022;10.760;2022-11-20T10:44:28;1.08;;;0.98;;
30515;SDS011;17297;54.022;10.760;2022-11-20T10:47:14;0.80;;;0.80;;
30515;SDS011;17297;54.022;10.760;2022-11-20T10:49:42;0.80;;;0.80;;
30515;SDS011;17297;54.022;10.760;2022-11-20T10:52:13;0.88;;;0.75;;
30515;SDS011;17297;54.022;10.760;2022-11-20T10:54:47;0.80;;;0.80;;
30515;SDS011;17297;54.022;10.760;2022-11-20T10:59:58;0.80;;;0.80;;
30515;SDS011;17297;54.022;10.760;2022-11-20T11:03:13;1.00;;;0.80;;
30515;SDS011;17297;54.022;10.760;2022-11-20T11:07:45;0.77;;;0.70;;
30515;SDS011;17297;54.022;10.760;2022-11-20T11:10:15;1.10;;;1.00;;
30515;SDS011;17297;54.022;10.760;2022-11-20T11:12:43;1.20;;;1.10;;
30515;SDS011;17297;54.022;10.760;2022-11-20T11:15:13;1.00;;;0.90;;
30515;SDS011;17297;54.022;10.760;2022-11-20T11:17:46;1.10;;;0.95;;
30515;SDS011;17297;54.022;10.760;2022-11-20T11:20:16;0.80;;;0.80;;
30515;SDS011;17297;54.022;10.760;2022-11-20T11:22:51;1.08;;;1.00;;
30515;SDS011;17297;54.022;10.760;2022-11-20T11:25:39;1.35;;;1.25;;
30515;SDS011;17297;54.022;10.760;2022-11-20T11:30:44;1.10;;;1.00;;
30515;SDS011;17297;54.022;10.760;2022-11-20T11:33:30;0.77;;;0.77;;
30515;SDS011;17297;54.022;10.760;2022-11-20T11:36:02;0.85;;;0.85;;
30515;SDS011;17297;54.022;10.760;2022-11-20T11:38:41;0.90;;;0.70;;
30515;SDS011;17297;54.022;10.760;2022-11-20T11:41:19;1.08;;;1.00;;
30515;SDS011;17297;54.022;10.760;2022-11-20T11:43:51;0.90;;;0.90;;
30515;SDS011;17297;54.022;10.760;2022-11-20T11:46:37;0.93;;;0.93;;
30515;SDS011;17297;54.022;10.760;2022-11-20T11:57:07;1.38;;;1.08;;
30515;SDS011;17297;54.022;10.760;2022-11-20T12:02:47;1.30;;;1.20;;
30515;SDS011;17297;54.022;10.760;2022-11-20T12:05:20;1.27;;;1.17;;
30515;SDS011;17297;54.022;10.760;2022-11-20T12:13:04;1.20;;;1.10;;
30515;SDS011;17297;54.022;10.760;2022-11-20T12:15:51;1.20;;;1.10;;
30515;SDS011;17297;54.022;10.760;2022-11-20T12:18:20;0.90;;;0.90;;
30515;SDS011;17297;54.022;10.760;2022-11-20T12:20:52;1.58;;;1.45;;
30515;SDS011;17297;54.022;10.760;2022-11-20T12:23:52;1.15;;;1.05;;
30515;SDS011;17297;54.022;10.760;2022-11-20T12:26:29;1.00;;;0.95;;
30515;SDS011;17297;54.022;10.760;2022-11-20T12:32:05;1.50;;;1.20;;
30515;SDS011;17297;54.022;10.760;2022-11-20T12:43:22;1.83;;;1.17;;
30515;SDS011;17297;54.022;10.760;2022-11-20T12:46:11;4.15;;;1.38;;
30515;SDS011;17297;54.022;10.760;2022-11-20T12:48:53;1.80;;;1.40;;
30515;SDS011;17297;54.022;10.760;2022-11-20T12:54:22;1.30;;;1.02;;
30515;SDS011;17297;54.022;10.760;2022-11-20T12:56:57;1.13;;;1.02;;
30515;SDS011;17297;54.022;10.760;2022-11-20T13:02:27;1.35;;;1.02;;
30515;SDS011;17297;54.022;10.760;2022-11-20T13:05:05;1.40;;;1.30;;
30515;SDS011;17297;54.022;10.760;2022-11-20T13:07:50;1.40;;;1.30;;
30515;SDS011;17297;54.022;10.760;2022-11-20T13:10:26;1.45;;;1.35;;
30515;SDS011;17297;54.022;10.760;2022-11-20T13:12:57;2.03;;;1.10;;
30515;SDS011;17297;54.022;10.760;2022-11-20T13:15:50;2.38;;;1.33;;
30515;SDS011;17297;54.022;10.760;2022-11-20T13:18:24;1.50;;;1.40;;
30515;SDS011;17297;54.022;10.760;2022-11-20T13:20:50;2.47;;;1.70;;
30515;SDS011;17297;54.022;10.760;2022-11-20T13:23:25;1.83;;;1.30;;
30515;SDS011;17297;54.022;10.760;2022-11-20T13:26:02;1.90;;;1.50;;
30515;SDS011;17297;54.022;10.760;2022-11-20T13:28:38;1.27;;;1.17;;
30515;SDS011;17297;54.022;10.760;2022-11-20T13:31:09;1.48;;;1.30;;
30515;SDS011;17297;54.022;10.760;2022-11-20T13:33:49;2.40;;;1.75;;
30515;SDS011;17297;54.022;10.760;2022-11-20T13:36:23;1.27;;;1.17;;
30515;SDS011;17297;54.022;10.760;2022-11-20T13:38:52;2.58;;;1.40;;
30515;SDS011;17297;54.022;10.760;2022-11-20T13:46:37;2.22;;;1.75;;
30515;SDS011;17297;54.022;10.760;2022-11-20T13:49:15;2.95;;;1.60;;
30515;SDS011;17297;54.022;10.760;2022-11-20T13:51:46;1.40;;;1.30;;
30515;SDS011;17297;54.022;10.760;2022-11-20T14:00:18;2.50;;;1.55;;
30515;SDS011;17297;54.022;10.760;2022-11-20T14:02:49;1.65;;;1.50;;
30515;SDS011;17297;54.022;10.760;2022-11-20T14:05:24;1.77;;;1.35;;
30515;SDS011;17297;54.022;10.760;2022-11-20T14:07:54;1.67;;;1.45;;
30515;SDS011;17297;54.022;10.760;2022-11-20T14:10:27;2.45;;;2.10;;
30515;SDS011;17297;54.022;10.760;2022-11-20T14:12:56;4.10;;;1.88;;
30515;SDS011;17297;54.022;10.760;2022-11-20T14:15:29;2.30;;;1.85;;
30515;SDS011;17297;54.022;10.760;2022-11-20T14:17:56;1.77;;;1.60;;
30515;SDS011;17297;54.022;10.760;2022-11-20T14:20:29;1.77;;;1.60;;
30515;SDS011;17297;54.022;10.760;2022-11-20T14:22:56;2.85;;;1.63;;
30515;SDS011;17297;54.022;10.760;2022-11-20T14:25:22;2.63;;;1.60;;
30515;SDS011;17297;54.022;10.760;2022-11-20T14:27:56;1.55;;;1.45;;
30515;SDS011;17297;54.022;10.760;2022-11-20T14:30:24;2.67;;;1.83;;
30515;SDS011;17297;54.022;10.760;2022-11-20T14:32:53;2.75;;;1.73;;
30515;SDS011;17297;54.022;10.760;2022-11-20T14:35:25;2.10;;;1.90;;
30515;SDS011;17297;54.022;10.760;2022-11-20T14:37:51;2.40;;;1.58;;
30515;SDS011;17297;54.022;10.760;2022-11-20T14:42:54;2.85;;;1.90;;
30515;SDS011;17297;54.022;10.760;2022-11-20T14:45:21;2.30;;;2.03;;
30515;SDS011;17297;54.022;10.760;2022-11-20T14:47:48;3.00;;;2.10;;
30515;SDS011;17297;54.022;10.760;2022-11-20T14:50:20;2.88;;;1.90;;
30515;SDS011;17297;54.022;10.760;2022-11-20T14:52:52;2.47;;;1.65;;
30515;SDS011;17297;54.022;10.760;2022-11-20T14:55:25;2.60;;;2.00;;
30515;SDS011;17297;54.022;10.760;2022-11-20T14:57:59;2.50;;;2.25;;
30515;SDS011;17297;54.022;10.760;2022-11-20T15:00:28;2.08;;;1.80;;
30515;SDS011;17297;54.022;10.760;2022-11-20T15:02:55;2.20;;;1.95;;
30515;SDS011;17297;54.022;10.760;2022-11-20T15:05:22;3.15;;;2.40;;
30515;SDS011;17297;54.022;10.760;2022-11-20T15:07:51;3.08;;;1.98;;
30515;SDS011;17297;54.022;10.760;2022-11-20T15:10:30;4.55;;;2.20;;
30515;SDS011;17297;54.022;10.760;2022-11-20T15:12:57;3.83;;;2.70;;
30515;SDS011;17297;54.022;10.760;2022-11-20T15:15:33;5.95;;;3.05;;
30515;SDS011;17297;54.022;10.760;2022-11-20T15:18:10;5.35;;;3.78;;
30515;SDS011;17297;54.022;10.760;2022-11-20T15:20:38;4.05;;;2.67;;
30515;SDS011;17297;54.022;10.760;2022-11-20T15:23:08;3.67;;;3.00;;
30515;SDS011;17297;54.022;10.760;2022-11-20T15:25:37;3.15;;;2.00;;
30515;SDS011;17297;54.022;10.760;2022-11-20T15:28:04;2.13;;;1.73;;
30515;SDS011;17297;54.022;10.760;2022-11-20T15:30:37;2.50;;;1.83;;
30515;SDS011;17297;54.022;10.760;2022-11-20T15:33:02;1.92;;;1.83;;
30515;SDS011;17297;54.022;10.760;2022-11-20T15:35:27;3.05;;;2.00;;
30515;SDS011;17297;54.022;10.760;2022-11-20T15:37:53;1.83;;;1.70;;
30515;SDS011;17297;54.022;10.760;2022-11-20T15:40:18;2.10;;;1.90;;
30515;SDS011;17297;54.022;10.760;2022-11-20T15:42:43;2.00;;;1.80;;
30515;SDS011;17297;54.022;10.760;2022-11-20T15:45:27;2.05;;;1.85;;
30515;SDS011;17297;54.022;10.760;2022-11-20T15:47:54;2.20;;;2.00;;
30515;SDS011;17297;54.022;10.760;2022-11-20T15:50:20;3.20;;;1.95;;
30515;SDS011;17297;54.022;10.760;2022-11-20T15:52:46;1.95;;;1.58;;
30515;SDS011;17297;54.022;10.760;2022-11-20T15:55:12;2.42;;;1.95;;
30515;SDS011;17297;54.022;10.760;2022-11-20T15:57:37;3.92;;;2.42;;
30515;SDS011;17297;54.022;10.760;2022-11-20T16:00:02;4.18;;;2.60;;
30515;SDS011;17297;54.022;10.760;2022-11-20T16:02:35;3.67;;;2.88;;
30515;SDS011;17297;54.022;10.760;2022-11-20T16:05:01;4.55;;;2.83;;
30515;SDS011;17297;54.022;10.760;2022-11-20T16:07:26;5.22;;;3.08;;